Time,TemperatureF,DewpointF,PressureIn,WindDirection,WindDirectionDegrees,WindSpeedMPH,WindSpeedGustMPH,Humidity,HourlyPrecipIn,Conditions,Clouds,dailyrainin,SoftwareType,DateUTC
2013-05-22 00:04:00,60.0,56.0,29.89,SW,229,12.0,-999.0,87,-99.99,,,-99.99,,2013-05-22 04:04:00,
2013-05-22 00:13:00,60.0,56.0,29.89,SW,229,12.0,-999.0,87,-99.99,,,-99.99,,2013-05-22 04:13:00,
2013-05-22 00:23:00,58.0,55.0,29.90,SW,229,8.0,-999.0,91,-99.99,,,-99.99,,2013-05-22 04:23:00,
2013-05-22 00:33:00,58.0,55.0,29.89,SW,236,7.0,-999.0,91,-99.99,,,-99.99,,2013-05-22 04:33:00,
2013-05-22 00:43:00,58.0,55.0,29.89,West,264,10.0,-999.0,89,-99.99,,,-99.99,,2013-05-22 04:43:00,
2013-05-22 00:53:00,58.0,55.0,29.89,West,264,10.0,-999.0,89,-99.99,,,-99.99,,2013-05-22 04:53:00,
2013-05-22 01:02:00,59.0,54.0,29.88,SW,219,11.0,-999.0,84,-99.99,,,-99.99,,2013-05-22 05:02:00,
2013-05-22 01:12:00,59.0,54.0,29.87,SW,230,10.0,-999.0,82,-99.99,,,-99.99,,2013-05-22 05:12:00,
2013-05-22 01:21:00,59.0,54.0,29.87,SW,230,10.0,-999.0,82,-99.99,,,-99.99,,2013-05-22 05:21:00,
2013-05-22 01:32:00,59.0,52.0,29.86,SW,224,9.0,-999.0,79,-99.99,,,-99.99,,2013-05-22 05:32:00,
2013-05-22 01:42:00,60.0,52.0,29.85,WSW,246,9.0,-999.0,76,-99.99,,,-99.99,,2013-05-22 05:42:00,
2013-05-22 01:52:00,60.0,52.0,29.85,WSW,246,9.0,-999.0,76,-99.99,,,-99.99,,2013-05-22 05:52:00,
2013-05-22 02:01:00,60.0,52.0,29.84,SW,227,8.0,-999.0,76,-99.99,,,-99.99,,2013-05-22 06:01:00,
2013-05-22 02:12:00,60.0,51.0,29.84,WSW,250,9.0,-999.0,73,-99.99,,,-99.99,,2013-05-22 06:12:00,
2013-05-22 02:21:00,60.0,51.0,29.84,WSW,250,9.0,-999.0,73,-99.99,,,-99.99,,2013-05-22 06:21:00,
2013-05-22 02:32:00,62.0,52.0,29.84,WSW,257,12.0,-999.0,69,-99.99,,,-99.99,,2013-05-22 06:32:00,
2013-05-22 02:42:00,61.0,52.0,29.83,SW,217,10.0,-999.0,71,-99.99,,,-99.99,,2013-05-22 06:42:00,
2013-05-22 02:52:00,61.0,52.0,29.83,SW,217,10.0,-999.0,71,-99.99,,,-99.99,,2013-05-22 06:52:00,
2013-05-22 03:01:00,60.0,51.0,29.83,SW,233,7.0,-999.0,72,-99.99,,,-99.99,,2013-05-22 07:01:00,
2013-05-22 03:11:00,60.0,51.0,29.83,SW,233,7.0,-999.0,72,-99.99,,,-99.99,,2013-05-22 07:11:00,
2013-05-22 03:21:00,60.0,51.0,29.82,SW,233,8.0,-999.0,71,-99.99,,,-99.99,,2013-05-22 07:21:00,
2013-05-22 03:32:00,61.0,51.0,29.82,WSW,242,7.0,-999.0,69,-99.99,,,-99.99,,2013-05-22 07:32:00,
2013-05-22 03:42:00,61.0,51.0,29.82,WSW,242,7.0,-999.0,69,-99.99,,,-99.99,,2013-05-22 07:42:00,
2013-05-22 03:53:00,61.0,50.0,29.82,SW,229,7.0,-999.0,67,-99.99,,,-99.99,,2013-05-22 07:53:00,
2013-05-22 04:02:00,60.0,49.0,29.82,WSW,246,8.0,-999.0,68,-99.99,,,-99.99,,2013-05-22 08:02:00,
2013-05-22 04:11:00,60.0,49.0,29.82,WSW,246,8.0,-999.0,68,-99.99,,,-99.99,,2013-05-22 08:11:00,
2013-05-22 04:22:00,61.0,50.0,29.82,West,259,9.0,-999.0,66,-99.99,,,-99.99,,2013-05-22 08:22:00,
2013-05-22 04:32:00,61.0,50.0,29.82,SW,234,8.0,-999.0,67,-99.99,,,-99.99,,2013-05-22 08:32:00,
2013-05-22 04:42:00,61.0,50.0,29.82,SW,234,8.0,-999.0,67,-99.99,,,-99.99,,2013-05-22 08:42:00,
2013-05-22 04:52:00,61.0,50.0,29.82,SW,234,9.0,-999.0,67,-99.99,,,-99.99,,2013-05-22 08:52:00,
2013-05-22 05:01:00,60.0,49.0,29.83,SW,236,9.0,-999.0,68,-99.99,,,-99.99,,2013-05-22 09:01:00,
2013-05-22 05:12:00,60.0,49.0,29.83,SW,236,9.0,-999.0,68,-99.99,,,-99.99,,2013-05-22 09:12:00,
2013-05-22 05:22:00,60.0,50.0,29.83,WSW,239,6.0,-999.0,69,-99.99,,,-99.99,,2013-05-22 09:22:00,
2013-05-22 05:33:00,60.0,50.0,29.83,SW,233,6.0,-999.0,70,-99.99,,,-99.99,,2013-05-22 09:33:00,
2013-05-22 05:42:00,60.0,50.0,29.83,SW,233,6.0,-999.0,70,-99.99,,,-99.99,,2013-05-22 09:42:00,
2013-05-22 05:53:00,60.0,50.0,29.83,SW,227,8.0,-999.0,69,-99.99,,,-99.99,,2013-05-22 09:53:00,
2013-05-22 06:03:00,60.0,50.0,29.83,SW,227,7.0,-999.0,70,-99.99,,,-99.99,,2013-05-22 10:03:00,
2013-05-22 06:12:00,60.0,51.0,29.83,SW,229,8.0,-999.0,71,-99.99,,,-99.99,,2013-05-22 10:12:00,
2013-05-22 06:23:00,60.0,51.0,29.83,SW,229,8.0,-999.0,71,-99.99,,,-99.99,,2013-05-22 10:23:00,
2013-05-22 06:33:00,60.0,51.0,29.84,WSW,243,8.0,-999.0,71,-99.99,,,-99.99,,2013-05-22 10:33:00,
2013-05-22 06:42:00,60.0,51.0,29.84,WSW,243,8.0,-999.0,71,-99.99,,,-99.99,,2013-05-22 10:42:00,
2013-05-22 06:53:00,60.0,50.0,29.84,SW,236,7.0,-999.0,69,-99.99,,,-99.99,,2013-05-22 10:53:00,
2013-05-22 07:02:00,60.0,49.0,29.85,WSW,254,6.0,-999.0,68,-99.99,,,-99.99,,2013-05-22 11:02:00,
2013-05-22 07:11:00,60.0,49.0,29.85,WSW,254,6.0,-999.0,68,-99.99,,,-99.99,,2013-05-22 11:11:00,
2013-05-22 07:22:00,60.0,49.0,29.85,WSW,245,8.0,-999.0,68,-99.99,,,-99.99,,2013-05-22 11:22:00,
2013-05-22 07:32:00,61.0,50.0,29.86,SW,220,7.0,-999.0,67,-99.99,,,-99.99,,2013-05-22 11:32:00,
2013-05-22 07:42:00,61.0,50.0,29.86,WSW,244,7.0,-999.0,67,-99.99,,,-99.99,,2013-05-22 11:42:00,
2013-05-22 07:53:00,61.0,50.0,29.86,WSW,244,7.0,-999.0,67,-99.99,,,-99.99,,2013-05-22 11:53:00,
2013-05-22 08:02:00,61.0,50.0,29.86,SW,235,8.0,-999.0,66,-99.99,,,-99.99,,2013-05-22 12:02:00,
2013-05-22 08:12:00,61.0,50.0,29.86,SW,235,8.0,-999.0,66,-99.99,,,-99.99,,2013-05-22 12:12:00,
2013-05-22 08:22:00,61.0,50.0,29.86,WSW,252,8.0,-999.0,67,-99.99,,,-99.99,,2013-05-22 12:22:00,
2013-05-22 08:32:00,62.0,52.0,29.87,SW,232,8.0,-999.0,70,-99.99,,,-99.99,,2013-05-22 12:32:00,
2013-05-22 08:42:00,62.0,52.0,29.87,SW,232,8.0,-999.0,70,-99.99,,,-99.99,,2013-05-22 12:42:00,
2013-05-22 08:52:00,62.0,52.0,29.87,SW,230,9.0,-999.0,71,-99.99,,,-99.99,,2013-05-22 12:52:00,
2013-05-22 09:02:00,62.0,53.0,29.87,WSW,237,8.0,-999.0,72,-99.99,,,-99.99,,2013-05-22 13:02:00,
2013-05-22 09:12:00,62.0,53.0,29.87,WSW,237,8.0,-999.0,72,-99.99,,,-99.99,,2013-05-22 13:12:00,
2013-05-22 09:22:00,63.0,54.0,29.87,WSW,238,6.0,-999.0,72,-99.99,,,-99.99,,2013-05-22 13:22:00,
2013-05-22 09:32:00,64.0,54.0,29.87,SW,232,6.0,-999.0,71,-99.99,,,-99.99,,2013-05-22 13:32:00,
2013-05-22 09:42:00,64.0,54.0,29.87,SW,232,6.0,-999.0,71,-99.99,,,-99.99,,2013-05-22 13:42:00,
2013-05-22 09:52:00,63.0,55.0,29.87,SW,227,7.0,-999.0,74,-99.99,,,-99.99,,2013-05-22 13:52:00,
2013-05-22 10:02:00,64.0,55.0,29.87,SW,229,8.0,-999.0,73,-99.99,,,-99.99,,2013-05-22 14:02:00,
2013-05-22 10:11:00,64.0,55.0,29.87,SW,229,8.0,-999.0,73,-99.99,,,-99.99,,2013-05-22 14:11:00,
2013-05-22 10:22:00,59.0,54.0,29.88,WSW,238,9.0,-999.0,82,-99.99,,,-99.99,,2013-05-22 14:22:00,
2013-05-22 10:32:00,57.0,53.0,29.87,WSW,242,4.0,-999.0,88,-99.99,,,-99.99,,2013-05-22 14:32:00,
2013-05-22 10:42:00,57.0,53.0,29.87,WSW,242,4.0,-999.0,88,-99.99,,,-99.99,,2013-05-22 14:42:00,
2013-05-22 10:53:00,58.0,55.0,29.88,WSW,254,0.0,-999.0,91,-99.99,,,-99.99,,2013-05-22 14:53:00,
2013-05-22 11:01:00,61.0,57.0,29.87,SW,218,4.0,-999.0,87,-99.99,,,-99.99,,2013-05-22 15:01:00,
2013-05-22 11:11:00,61.0,57.0,29.87,SW,218,4.0,-999.0,87,-99.99,,,-99.99,,2013-05-22 15:11:00,
2013-05-22 11:22:00,65.0,59.0,29.87,WSW,238,8.0,-999.0,81,-99.99,,,-99.99,,2013-05-22 15:22:00,
2013-05-22 11:32:00,65.0,59.0,29.87,SW,236,6.0,-999.0,82,-99.99,,,-99.99,,2013-05-22 15:32:00,
2013-05-22 11:42:00,65.0,59.0,29.87,SW,236,6.0,-999.0,82,-99.99,,,-99.99,,2013-05-22 15:42:00,
2013-05-22 11:53:00,66.0,60.0,29.87,SW,219,8.0,-999.0,80,-99.99,,,-99.99,,2013-05-22 15:53:00,
2013-05-22 12:03:00,68.0,61.0,29.86,WSW,242,8.0,-999.0,78,-99.99,,,-99.99,,2013-05-22 16:03:00,
2013-05-22 12:12:00,68.0,61.0,29.86,WSW,242,8.0,-999.0,78,-99.99,,,-99.99,,2013-05-22 16:12:00,
2013-05-22 12:23:00,67.0,60.0,29.85,WSW,252,9.0,-999.0,78,-99.99,,,-99.99,,2013-05-22 16:23:00,
2013-05-22 12:32:00,68.0,60.0,29.85,SW,231,6.0,-999.0,76,-99.99,,,-99.99,,2013-05-22 16:32:00,
2013-05-22 12:42:00,68.0,60.0,29.85,SW,231,6.0,-999.0,76,-99.99,,,-99.99,,2013-05-22 16:42:00,
2013-05-22 12:52:00,65.0,60.0,29.85,SW,232,4.0,-999.0,83,-99.99,,,-99.99,,2013-05-22 16:52:00,
2013-05-22 13:02:00,68.0,60.0,29.84,SSW,210,3.0,-999.0,76,-99.99,,,-99.99,,2013-05-22 17:02:00,
2013-05-22 13:12:00,64.0,60.0,29.84,West,277,4.0,-999.0,86,-99.99,,,-99.99,,2013-05-22 17:12:00,
2013-05-22 13:23:00,64.0,60.0,29.84,West,277,4.0,-999.0,86,-99.99,,,-99.99,,2013-05-22 17:23:00,
2013-05-22 13:33:00,62.0,59.0,29.84,WSW,242,7.0,-999.0,90,-99.99,,,-99.99,,2013-05-22 17:33:00,
2013-05-22 13:42:00,62.0,59.0,29.84,WSW,242,7.0,-999.0,90,-99.99,,,-99.99,,2013-05-22 17:42:00,
2013-05-22 13:54:00,61.0,57.0,29.83,WSW,247,11.0,-999.0,87,-99.99,,,-99.99,,2013-05-22 17:54:00,
2013-05-22 14:02:00,64.0,57.0,29.83,SW,229,7.0,-999.0,78,-99.99,,,-99.99,,2013-05-22 18:02:00,
2013-05-22 14:14:00,64.0,57.0,29.83,SW,229,7.0,-999.0,78,-99.99,,,-99.99,,2013-05-22 18:14:00,
2013-05-22 14:22:00,67.0,58.0,29.83,SW,230,7.0,-999.0,73,-99.99,,,-99.99,,2013-05-22 18:22:00,
2013-05-22 14:33:00,69.0,59.0,29.83,SW,224,8.0,-999.0,71,-99.99,,,-99.99,,2013-05-22 18:33:00,
2013-05-22 14:42:00,69.0,59.0,29.83,SW,224,8.0,-999.0,71,-99.99,,,-99.99,,2013-05-22 18:42:00,
2013-05-22 14:52:00,68.0,60.0,29.82,West,266,8.0,-999.0,76,-99.99,,,-99.99,,2013-05-22 18:52:00,
2013-05-22 15:02:00,70.0,61.0,29.82,West,262,6.0,-999.0,72,-99.99,,,-99.99,,2013-05-22 19:02:00,
2013-05-22 15:11:00,70.0,61.0,29.82,West,262,6.0,-999.0,72,-99.99,,,-99.99,,2013-05-22 19:11:00,
2013-05-22 15:21:00,72.0,61.0,29.81,ENE,71,3.0,-999.0,69,-99.99,,,-99.99,,2013-05-22 19:21:00,
2013-05-22 15:32:00,61.0,57.0,29.82,East,94,10.0,-999.0,86,-99.99,,,-99.99,,2013-05-22 19:32:00,
2013-05-22 15:42:00,60.0,56.0,29.80,ENE,76,7.0,-999.0,86,-99.99,,,-99.99,,2013-05-22 19:42:00,
2013-05-22 15:52:00,60.0,56.0,29.80,ENE,76,7.0,-999.0,86,-99.99,,,-99.99,,2013-05-22 19:52:00,
2013-05-22 16:02:00,64.0,54.0,29.80,SW,232,4.0,-999.0,70,-99.99,,,-99.99,,2013-05-22 20:02:00,
2013-05-22 16:11:00,62.0,56.0,29.82,WSW,253,7.0,-999.0,81,-99.99,,,-99.99,,2013-05-22 20:11:00,
2013-05-22 16:22:00,62.0,56.0,29.82,WSW,253,7.0,-999.0,81,-99.99,,,-99.99,,2013-05-22 20:22:00,
2013-05-22 16:32:00,58.0,55.0,29.81,SSW,205,5.0,-999.0,91,-99.99,,,-99.99,,2013-05-22 20:32:00,
2013-05-22 16:42:00,59.0,54.0,29.80,SSW,209,2.0,-999.0,85,-99.99,,,-99.99,,2013-05-22 20:42:00,
2013-05-22 16:52:00,59.0,54.0,29.80,SSW,209,2.0,-999.0,85,-99.99,,,-99.99,,2013-05-22 20:52:00,
2013-05-22 17:01:00,61.0,55.0,29.80,SSW,193,4.0,-999.0,82,-99.99,,,-99.99,,2013-05-22 21:01:00,
2013-05-22 17:11:00,61.0,55.0,29.80,SSW,193,4.0,-999.0,82,-99.99,,,-99.99,,2013-05-22 21:11:00,
2013-05-22 17:21:00,65.0,58.0,29.79,South,174,4.0,-999.0,77,-99.99,,,-99.99,,2013-05-22 21:21:00,
2013-05-22 17:32:00,64.0,56.0,29.80,South,175,5.0,-999.0,76,-99.99,,,-99.99,,2013-05-22 21:32:00,
2013-05-22 17:42:00,64.0,56.0,29.80,South,175,5.0,-999.0,76,-99.99,,,-99.99,,2013-05-22 21:42:00,
2013-05-22 17:53:00,62.0,55.0,29.80,SSW,192,6.0,-999.0,78,-99.99,,,-99.99,,2013-05-22 21:53:00,
2013-05-22 18:03:00,59.0,54.0,29.81,SSW,209,7.0,-999.0,83,-99.99,,,-99.99,,2013-05-22 22:03:00,
2013-05-22 18:13:00,59.0,54.0,29.81,SSW,209,7.0,-999.0,83,-99.99,,,-99.99,,2013-05-22 22:13:00,
2013-05-22 18:22:00,57.0,54.0,29.83,SW,221,7.0,-999.0,90,-99.99,,,-99.99,,2013-05-22 22:22:00,
2013-05-22 18:33:00,56.0,52.0,29.83,SW,216,8.0,-999.0,87,-99.99,,,-99.99,,2013-05-22 22:33:00,
2013-05-22 18:42:00,55.0,50.0,29.82,WSW,258,2.0,-999.0,82,-99.99,,,-99.99,,2013-05-22 22:42:00,
2013-05-22 18:52:00,55.0,50.0,29.82,WSW,258,2.0,-999.0,82,-99.99,,,-99.99,,2013-05-22 22:52:00,
2013-05-22 19:02:00,56.0,51.0,29.82,WSW,238,0.0,-999.0,82,-99.99,,,-99.99,,2013-05-22 23:02:00,
2013-05-22 19:12:00,56.0,51.0,29.82,WSW,238,0.0,-999.0,82,-99.99,,,-99.99,,2013-05-22 23:12:00,
2013-05-22 19:21:00,57.0,53.0,29.82,SW,220,0.0,-999.0,86,-99.99,,,-99.99,,2013-05-22 23:21:00,
2013-05-22 19:32:00,58.0,54.0,29.82,South,180,1.0,-999.0,88,-99.99,,,-99.99,,2013-05-22 23:32:00,
2013-05-22 19:42:00,58.0,54.0,29.82,South,180,1.0,-999.0,88,-99.99,,,-99.99,,2013-05-22 23:42:00,
2013-05-22 19:53:00,59.0,54.0,29.82,SSE,165,2.0,-999.0,85,-99.99,,,-99.99,,2013-05-22 23:53:00,
2013-05-22 20:01:00,60.0,55.0,29.81,SSE,166,2.0,-999.0,85,-99.99,,,-99.99,,2013-05-23 00:01:00,
2013-05-22 20:11:00,60.0,55.0,29.81,SSE,166,2.0,-999.0,85,-99.99,,,-99.99,,2013-05-23 00:11:00,
2013-05-22 20:22:00,60.0,55.0,29.81,South,188,4.0,-999.0,83,-99.99,,,-99.99,,2013-05-23 00:22:00,
2013-05-22 20:32:00,59.0,54.0,29.82,SSW,198,6.0,-999.0,83,-99.99,,,-99.99,,2013-05-23 00:32:00,
2013-05-22 20:42:00,59.0,54.0,29.82,SSW,198,6.0,-999.0,83,-99.99,,,-99.99,,2013-05-23 00:42:00,
2013-05-22 20:52:00,59.0,54.0,29.82,SSW,198,7.0,-999.0,82,-99.99,,,-99.99,,2013-05-23 00:52:00,
2013-05-22 21:01:00,59.0,54.0,29.82,SSE,164,8.0,-999.0,82,-99.99,,,-99.99,,2013-05-23 01:01:00,
2013-05-22 21:11:00,59.0,54.0,29.82,SSE,164,8.0,-999.0,82,-99.99,,,-99.99,,2013-05-23 01:11:00,
2013-05-22 21:22:00,58.0,54.0,29.83,SSW,200,7.0,-999.0,85,-99.99,,,-99.99,,2013-05-23 01:22:00,
2013-05-22 21:32:00,57.0,54.0,29.83,SW,219,6.0,-999.0,89,-99.99,,,-99.99,,2013-05-23 01:32:00,
2013-05-22 21:42:00,57.0,54.0,29.83,SSW,199,8.0,-999.0,90,-99.99,,,-99.99,,2013-05-23 01:42:00,
2013-05-22 21:52:00,57.0,54.0,29.83,SSW,199,8.0,-999.0,90,-99.99,,,-99.99,,2013-05-23 01:52:00,
2013-05-22 22:02:00,57.0,54.0,29.83,SSW,196,9.0,-999.0,91,-99.99,,,-99.99,,2013-05-23 02:02:00,
2013-05-22 22:11:00,57.0,54.0,29.83,SSW,196,9.0,-999.0,91,-99.99,,,-99.99,,2013-05-23 02:11:00,
2013-05-22 22:21:00,58.0,55.0,29.83,South,186,6.0,-999.0,90,-99.99,,,-99.99,,2013-05-23 02:21:00,
2013-05-22 22:32:00,58.0,54.0,29.83,SW,220,7.0,-999.0,87,-99.99,,,-99.99,,2013-05-23 02:32:00,
2013-05-22 22:42:00,58.0,54.0,29.83,SW,220,7.0,-999.0,87,-99.99,,,-99.99,,2013-05-23 02:42:00,
2013-05-22 22:52:00,58.0,54.0,29.83,SW,220,7.0,-999.0,87,-99.99,,,-99.99,,2013-05-23 02:52:00,
2013-05-22 23:02:00,58.0,54.0,29.82,SSE,161,6.0,-999.0,85,-99.99,,,-99.99,,2013-05-23 03:02:00,
2013-05-22 23:11:00,58.0,54.0,29.82,SSE,161,6.0,-999.0,85,-99.99,,,-99.99,,2013-05-23 03:11:00,
2013-05-22 23:22:00,58.0,54.0,29.82,South,181,5.0,-999.0,88,-99.99,,,-99.99,,2013-05-23 03:22:00,
2013-05-22 23:33:00,58.0,54.0,29.82,SSE,161,7.0,-999.0,87,-99.99,,,-99.99,,2013-05-23 03:33:00,
2013-05-22 23:43:00,58.0,54.0,29.82,SSE,161,7.0,-999.0,87,-99.99,,,-99.99,,2013-05-23 03:43:00,
2013-05-22 23:53:00,57.0,53.0,29.82,SSE,155,9.0,-999.0,85,-99.99,,,-99.99,,2013-05-23 03:53:00,